createdAt,value
2023-05-15T00:00:52.913Z,9.85
2023-05-15T00:01:52.865Z,9.95
2023-05-15T00:02:52.945Z,9.91
2023-05-15T00:03:52.988Z,9.93
2023-05-15T00:04:52.846Z,9.92
2023-05-15T00:05:52.873Z,9.92
2023-05-15T00:06:52.826Z,9.91
2023-05-15T00:07:52.954Z,9.88
2023-05-15T00:08:52.790Z,9.83
2023-05-15T00:09:52.804Z,9.81
2023-05-15T00:11:00.934Z,9.70
2023-05-15T00:11:54.140Z,9.80
2023-05-15T00:12:52.785Z,9.73
2023-05-15T00:13:52.866Z,9.73
2023-05-15T00:14:52.776Z,9.67
2023-05-15T00:15:53.054Z,9.78
2023-05-15T00:16:52.748Z,9.70
2023-05-15T00:17:52.859Z,9.71
2023-05-15T00:18:52.851Z,9.74
2023-05-15T00:19:52.728Z,9.70
2023-05-15T00:20:52.726Z,9.65
2023-05-15T00:21:52.718Z,9.63
2023-05-15T00:22:52.769Z,9.80
2023-05-15T00:23:52.708Z,9.78
2023-05-15T00:24:52.681Z,9.73
2023-05-15T00:25:52.674Z,9.74
2023-05-15T00:26:52.651Z,9.77
2023-05-15T00:27:52.789Z,9.67
2023-05-15T00:28:52.733Z,9.74
2023-05-15T00:29:52.641Z,9.73
2023-05-15T00:30:52.629Z,9.58
2023-05-15T00:31:52.676Z,9.68
2023-05-15T00:32:52.644Z,9.59
2023-05-15T00:33:52.648Z,9.63
2023-05-15T00:34:52.663Z,9.58
2023-05-15T00:35:52.598Z,9.55
2023-05-15T00:36:52.606Z,9.62
2023-05-15T00:37:52.598Z,9.53
2023-05-15T00:38:52.581Z,9.56
2023-05-15T00:39:52.579Z,9.63
2023-05-15T00:40:52.632Z,9.59
2023-05-15T00:41:52.568Z,9.59
2023-05-15T00:42:52.545Z,9.49
2023-05-15T00:43:52.550Z,9.49
2023-05-15T00:44:52.544Z,9.53
2023-05-15T00:45:52.627Z,9.53
2023-05-15T00:46:52.580Z,9.58
2023-05-15T00:47:52.541Z,9.42
2023-05-15T00:48:52.547Z,9.49
2023-05-15T00:49:52.508Z,9.50
2023-05-15T00:50:52.518Z,9.53
2023-05-15T00:51:52.565Z,9.49
2023-05-15T00:52:52.589Z,9.53
2023-05-15T00:53:52.559Z,9.50
2023-05-15T00:54:52.459Z,9.40
2023-05-15T00:55:52.468Z,9.41
2023-05-15T00:56:52.455Z,9.40
2023-05-15T00:57:52.491Z,9.34
2023-05-15T00:58:52.443Z,9.34
2023-05-15T00:59:52.445Z,9.32
2023-05-15T01:00:52.471Z,9.38
2023-05-15T01:01:52.416Z,9.34
2023-05-15T01:02:52.602Z,9.42
2023-05-15T01:03:52.494Z,9.42
2023-05-15T01:04:52.396Z,9.50
2023-05-15T01:05:52.392Z,9.48
2023-05-15T01:06:52.387Z,9.41
2023-05-15T01:07:52.381Z,9.50
2023-05-15T01:08:52.346Z,9.44
2023-05-15T01:09:52.340Z,9.48
2023-05-15T01:10:52.345Z,9.45
2023-05-15T01:11:52.323Z,9.48
2023-05-15T01:12:52.320Z,9.56
2023-05-15T01:13:52.389Z,9.41
2023-05-15T01:14:52.325Z,9.40
2023-05-15T01:15:52.348Z,9.48
2023-05-15T01:16:52.298Z,9.53
2023-05-15T01:17:52.439Z,9.48
2023-05-15T01:18:52.357Z,9.45
2023-05-15T01:19:52.906Z,9.44
2023-05-15T01:20:52.279Z,9.55
2023-05-15T01:21:52.280Z,9.49
2023-05-15T01:22:52.289Z,9.56
2023-05-15T01:23:52.230Z,9.56
2023-05-15T01:24:52.233Z,9.58
2023-05-15T01:25:52.293Z,9.53
2023-05-15T01:26:52.225Z,9.58
2023-05-15T01:27:52.206Z,9.52
2023-05-15T01:28:52.218Z,9.59
2023-05-15T01:29:52.210Z,9.59
2023-05-15T01:30:52.249Z,9.52
2023-05-15T01:31:52.242Z,9.45
2023-05-15T01:32:52.251Z,9.41
2023-05-15T01:33:52.149Z,9.49
2023-05-15T01:34:52.157Z,9.59
2023-05-15T01:35:52.196Z,9.58
2023-05-15T01:36:52.205Z,9.52
2023-05-15T01:37:52.151Z,9.49
2023-05-15T01:38:52.152Z,9.34
2023-05-15T01:39:52.119Z,9.38
2023-05-15T01:40:52.170Z,9.30
2023-05-15T01:41:52.159Z,9.27
2023-05-15T01:42:52.152Z,9.20
2023-05-15T01:43:52.090Z,9.32
2023-05-15T01:44:52.144Z,9.17
2023-05-15T01:45:52.135Z,9.20
2023-05-15T01:46:52.149Z,9.17
2023-05-15T01:47:52.179Z,9.19
2023-05-15T01:48:52.046Z,9.13
2023-05-15T01:49:52.060Z,9.13
2023-05-15T01:50:52.032Z,9.10
2023-05-15T01:51:52.129Z,9.13
2023-05-15T01:52:52.023Z,9.06
2023-05-15T01:53:52.028Z,8.98
2023-05-15T01:54:52.021Z,9.01
2023-05-15T01:55:52.007Z,8.96
2023-05-15T01:56:51.991Z,8.89
2023-05-15T01:57:52.062Z,8.91
2023-05-15T01:58:51.981Z,8.82
2023-05-15T01:59:51.972Z,8.88
2023-05-15T02:00:51.961Z,8.88
2023-05-15T02:01:51.999Z,8.82
2023-05-15T02:02:52.019Z,8.78
2023-05-15T02:03:52.113Z,8.89
2023-05-15T02:04:51.955Z,8.83
2023-05-15T02:05:51.965Z,8.83
2023-05-15T02:06:51.959Z,8.85
2023-05-15T02:07:51.914Z,8.78
2023-05-15T02:08:51.968Z,8.76
2023-05-15T02:09:51.900Z,8.79
2023-05-15T02:10:51.925Z,8.82
2023-05-15T02:11:51.881Z,8.82
2023-05-15T02:12:51.900Z,8.89
2023-05-15T02:13:51.876Z,8.83
2023-05-15T02:14:51.915Z,8.89
2023-05-15T02:15:51.890Z,8.91
2023-05-15T02:16:51.861Z,9.00
2023-05-15T02:17:51.880Z,9.03
2023-05-15T02:18:51.911Z,9.03
2023-05-15T02:19:51.819Z,9.12
2023-05-15T02:20:52.225Z,9.04
2023-05-15T02:21:51.818Z,9.08
2023-05-15T02:22:51.831Z,9.03
2023-05-15T02:23:51.799Z,9.03
2023-05-15T02:24:51.824Z,9.08
2023-05-15T02:25:51.788Z,9.01
2023-05-15T02:26:51.794Z,9.06
2023-05-15T02:27:51.778Z,9.03
2023-05-15T02:28:51.782Z,9.12
2023-05-15T02:29:51.772Z,9.12
2023-05-15T02:30:51.780Z,9.13
2023-05-15T02:31:51.805Z,9.20
2023-05-15T02:32:51.744Z,9.17
2023-05-15T02:33:51.772Z,9.12
2023-05-15T02:34:51.715Z,9.23
2023-05-15T02:35:51.711Z,9.16
2023-05-15T02:36:51.811Z,9.23
2023-05-15T02:37:51.718Z,9.17
2023-05-15T02:38:51.730Z,9.15
2023-05-15T02:39:51.681Z,9.12
2023-05-15T02:40:51.785Z,9.08
2023-05-15T02:41:51.674Z,9.04
2023-05-15T02:42:51.715Z,8.96
2023-05-15T02:43:51.669Z,9.06
2023-05-15T02:44:51.675Z,9.08
2023-05-15T02:45:51.656Z,9.04
2023-05-15T02:46:51.635Z,9.08
2023-05-15T02:47:51.700Z,9.16
2023-05-15T02:48:51.642Z,9.16
2023-05-15T02:49:51.610Z,9.13
2023-05-15T02:50:51.656Z,9.16
2023-05-15T02:51:51.600Z,9.03
2023-05-15T02:52:51.656Z,9.06
2023-05-15T02:53:51.638Z,8.94
2023-05-15T02:54:51.585Z,8.93
2023-05-15T02:55:51.585Z,8.89
2023-05-15T02:56:51.576Z,8.88
2023-05-15T02:57:51.557Z,8.91
2023-05-15T02:58:51.570Z,8.88
2023-05-15T02:59:51.577Z,8.89
2023-05-15T03:00:51.542Z,8.80
2023-05-15T03:01:51.505Z,8.79
2023-05-15T03:02:51.568Z,8.70
2023-05-15T03:03:51.554Z,8.76
2023-05-15T03:04:51.581Z,8.78
2023-05-15T03:05:51.522Z,8.76
2023-05-15T03:06:51.530Z,8.68
2023-05-15T03:07:51.489Z,8.71
2023-05-15T03:08:51.488Z,8.64
2023-05-15T03:09:51.494Z,8.75
2023-05-15T03:10:52.199Z,8.78
2023-05-15T03:11:51.476Z,8.78
2023-05-15T03:12:51.508Z,8.71
2023-05-15T03:13:51.444Z,8.75
2023-05-15T03:14:51.445Z,8.68
2023-05-15T03:15:51.436Z,8.79
2023-05-15T03:16:51.524Z,8.78
2023-05-15T03:17:51.486Z,8.86
2023-05-15T03:18:51.560Z,8.78
2023-05-15T03:19:51.425Z,8.79
2023-05-15T03:20:51.422Z,8.83
2023-05-15T03:21:51.874Z,8.85
2023-05-15T03:22:51.420Z,8.88
2023-05-15T03:23:51.391Z,8.79
2023-05-15T03:24:51.360Z,8.83
2023-05-15T03:25:51.350Z,8.64
2023-05-15T03:26:51.359Z,8.70
2023-05-15T03:27:51.413Z,8.68
2023-05-15T03:28:51.345Z,8.60
2023-05-15T03:29:51.345Z,8.71
2023-05-15T03:30:51.336Z,8.67
2023-05-15T03:31:51.354Z,8.78
2023-05-15T03:32:51.417Z,8.78
2023-05-15T03:33:51.388Z,8.78
2023-05-15T03:34:51.420Z,8.71
2023-05-15T03:35:51.263Z,8.67
2023-05-15T03:36:51.295Z,8.63
2023-05-15T03:37:51.263Z,8.68
2023-05-15T03:38:51.245Z,8.67
2023-05-15T03:39:51.304Z,8.65
2023-05-15T03:40:51.424Z,8.60
2023-05-15T03:41:51.254Z,8.67
2023-05-15T03:42:51.295Z,8.58
2023-05-15T03:43:51.219Z,8.54
2023-05-15T03:44:51.276Z,8.60
2023-05-15T03:45:51.220Z,8.55
2023-05-15T03:46:51.303Z,8.61
2023-05-15T03:47:51.282Z,8.68
2023-05-15T03:48:51.228Z,8.67
2023-05-15T03:49:51.227Z,8.65
2023-05-15T03:50:51.208Z,8.57
2023-05-15T03:51:51.186Z,8.52
2023-05-15T03:52:51.191Z,8.61
2023-05-15T03:53:51.175Z,8.50
2023-05-15T03:54:51.156Z,8.54
2023-05-15T03:55:51.148Z,8.58
2023-05-15T03:56:51.190Z,8.50
2023-05-15T03:57:51.116Z,8.58
2023-05-15T03:58:51.107Z,8.54
2023-05-15T03:59:51.122Z,8.40
2023-05-15T04:00:51.113Z,8.40
2023-05-15T04:02:03.466Z,8.36
2023-05-15T04:02:52.243Z,8.31
2023-05-15T04:03:51.096Z,8.32
2023-05-15T04:04:51.184Z,8.28
2023-05-15T04:05:51.113Z,8.34
2023-05-15T04:06:51.051Z,8.31
2023-05-15T04:07:51.067Z,8.36
2023-05-15T04:08:51.077Z,8.25
2023-05-15T04:09:51.069Z,8.32
2023-05-15T04:10:51.058Z,8.21
2023-05-15T04:11:51.041Z,8.31
2023-05-15T04:12:51.048Z,8.29
2023-05-15T04:13:51.048Z,8.29
2023-05-15T04:14:51.007Z,8.37
2023-05-15T04:15:51.001Z,8.34
2023-05-15T04:16:51.040Z,8.32
2023-05-15T04:17:51.009Z,8.34
2023-05-15T04:18:51.093Z,8.42
2023-05-15T04:19:50.990Z,8.43
2023-05-15T04:20:50.986Z,8.28
2023-05-15T04:21:50.948Z,8.36
2023-05-15T04:22:50.931Z,8.42
2023-05-15T04:23:51.177Z,8.40
2023-05-15T04:24:50.932Z,8.40
2023-05-15T04:25:50.927Z,8.37
2023-05-15T04:26:50.949Z,8.40
2023-05-15T04:27:50.941Z,8.31
2023-05-15T04:29:02.780Z,8.45
2023-05-15T04:29:51.940Z,8.39
2023-05-15T04:30:51.051Z,8.39
2023-05-15T04:31:50.927Z,8.39
2023-05-15T04:32:50.893Z,8.52
2023-05-15T04:33:51.446Z,8.52
2023-05-15T04:34:50.909Z,8.49
2023-05-15T04:35:50.883Z,8.39
2023-05-15T04:36:50.880Z,8.45
2023-05-15T04:37:50.837Z,8.43
2023-05-15T04:38:50.845Z,8.39
2023-05-15T04:39:50.850Z,8.46
2023-05-15T04:40:50.831Z,8.45
2023-05-15T04:41:50.868Z,8.55
2023-05-15T04:42:50.811Z,8.55
2023-05-15T04:43:50.802Z,8.61
2023-05-15T04:44:50.792Z,8.63
2023-05-15T04:45:50.869Z,8.61
2023-05-15T04:46:50.810Z,8.67
2023-05-15T04:47:50.815Z,8.55
2023-05-15T04:48:50.777Z,8.67
2023-05-15T04:49:50.786Z,8.58
2023-05-15T04:50:50.750Z,8.64
2023-05-15T04:51:50.748Z,8.60
2023-05-15T04:52:50.798Z,8.64
2023-05-15T04:53:50.787Z,8.65
2023-05-15T04:54:50.726Z,8.63
2023-05-15T04:55:50.725Z,8.71
2023-05-15T04:56:50.725Z,8.73
2023-05-15T04:57:50.708Z,8.63
2023-05-15T04:58:50.716Z,8.76
2023-05-15T04:59:50.737Z,8.75
2023-05-15T05:00:50.686Z,8.85
2023-05-15T05:01:50.697Z,8.76
2023-05-15T05:02:50.763Z,8.88
2023-05-15T05:03:50.679Z,8.83
2023-05-15T05:04:50.736Z,8.89
2023-05-15T05:05:50.665Z,9.00
2023-05-15T05:06:50.741Z,9.08
2023-05-15T05:07:50.628Z,9.04
2023-05-15T05:08:50.639Z,9.03
2023-05-15T05:09:50.628Z,9.03
2023-05-15T05:10:50.739Z,9.13
2023-05-15T05:11:50.611Z,9.12
2023-05-15T05:12:50.602Z,9.13
2023-05-15T05:13:50.680Z,9.31
2023-05-15T05:14:50.594Z,9.26
2023-05-15T05:15:50.637Z,9.31
2023-05-15T05:16:50.661Z,9.30
2023-05-15T05:17:50.953Z,9.30
2023-05-15T05:18:50.774Z,9.24
2023-05-15T05:19:50.546Z,9.27
2023-05-15T05:20:50.681Z,9.41
2023-05-15T05:21:50.565Z,9.42
2023-05-15T05:22:50.687Z,9.35
2023-05-15T05:23:50.539Z,9.41
2023-05-15T05:24:50.555Z,9.42
2023-05-15T05:25:50.522Z,9.50
2023-05-15T05:26:50.523Z,9.62
2023-05-15T05:27:50.878Z,9.70
2023-05-15T05:28:50.493Z,9.80
2023-05-15T05:29:50.501Z,9.73
2023-05-15T05:30:50.545Z,9.85
2023-05-15T05:31:50.595Z,9.81
2023-05-15T05:32:50.512Z,9.85
2023-05-15T05:33:50.521Z,10.01
2023-05-15T05:34:50.492Z,9.98
2023-05-15T05:35:50.436Z,10.04
2023-05-15T05:36:50.439Z,9.91
2023-05-15T05:37:50.448Z,9.99
2023-05-15T05:38:50.428Z,10.10
2023-05-15T05:39:50.555Z,10.10
2023-05-15T05:40:50.408Z,10.09
2023-05-15T05:41:50.419Z,10.04
2023-05-15T05:42:50.363Z,10.02
2023-05-15T05:43:50.379Z,10.13
2023-05-15T05:44:50.334Z,10.22
2023-05-15T05:45:50.390Z,10.35
2023-05-15T05:46:50.417Z,10.42
2023-05-15T05:47:50.371Z,10.51
2023-05-15T05:48:50.325Z,10.68
2023-05-15T05:49:50.312Z,10.69
2023-05-15T05:50:50.316Z,10.81
2023-05-15T05:51:50.341Z,10.86
2023-05-15T05:52:50.521Z,10.78
2023-05-15T05:53:50.387Z,10.78
2023-05-15T05:54:50.462Z,10.83
2023-05-15T05:55:50.564Z,10.78
2023-05-15T05:56:50.830Z,10.86
2023-05-15T05:57:50.485Z,10.76
2023-05-15T05:58:50.271Z,10.88
2023-05-15T05:59:50.312Z,10.76
2023-05-15T06:00:50.234Z,10.88
2023-05-15T06:01:50.268Z,10.87
2023-05-15T06:02:50.280Z,10.78
2023-05-15T06:03:50.346Z,10.98
2023-05-15T06:04:50.286Z,10.99
2023-05-15T06:05:50.221Z,10.94
2023-05-15T06:06:50.272Z,11.01
2023-05-15T06:07:50.216Z,11.05
2023-05-15T06:08:50.212Z,11.17
2023-05-15T06:09:50.150Z,11.24
2023-05-15T06:10:50.146Z,11.48
2023-05-15T06:11:50.161Z,11.35
2023-05-15T06:12:50.146Z,11.31
2023-05-15T06:13:50.144Z,11.33
2023-05-15T06:14:50.224Z,11.35
2023-05-15T06:15:50.105Z,11.24
2023-05-15T06:16:50.140Z,11.44
2023-05-15T06:17:50.121Z,11.44
2023-05-15T06:18:50.168Z,11.45
2023-05-15T06:19:50.111Z,11.48
2023-05-15T06:20:50.129Z,11.41
2023-05-15T06:21:50.055Z,11.41
2023-05-15T06:22:50.066Z,11.39
2023-05-15T06:23:50.078Z,11.46
2023-05-15T06:24:50.082Z,11.60
2023-05-15T06:25:50.033Z,11.66
2023-05-15T06:26:50.611Z,11.79
2023-05-15T06:27:50.033Z,11.82
2023-05-15T06:28:50.028Z,11.72
2023-05-15T06:29:50.016Z,11.53
2023-05-15T06:30:50.040Z,11.46
2023-05-15T06:31:50.580Z,11.60
2023-05-15T06:32:50.084Z,11.74
2023-05-15T06:33:50.021Z,11.72
2023-05-15T06:34:49.976Z,11.87
2023-05-15T06:35:49.978Z,11.98
2023-05-15T06:36:49.969Z,12.03
2023-05-15T06:37:49.996Z,12.13
2023-05-15T06:38:49.957Z,12.12
2023-05-15T06:39:49.961Z,12.07
2023-05-15T06:40:49.929Z,12.04
2023-05-15T06:41:49.923Z,12.18
2023-05-15T06:42:49.958Z,12.21
2023-05-15T06:43:49.952Z,12.23
2023-05-15T06:44:49.900Z,12.25
2023-05-15T06:45:49.917Z,12.36
2023-05-15T06:46:49.903Z,12.37
2023-05-15T06:47:49.929Z,12.59
2023-05-15T06:48:49.867Z,12.69
2023-05-15T06:49:49.902Z,12.76
2023-05-15T06:50:49.860Z,12.69
2023-05-15T06:51:49.889Z,12.62
2023-05-15T06:52:49.829Z,12.74
2023-05-15T06:53:49.859Z,12.63
2023-05-15T06:54:49.877Z,12.70
2023-05-15T06:55:49.879Z,12.71
2023-05-15T06:56:49.799Z,12.70
2023-05-15T06:57:49.816Z,12.80
2023-05-15T06:58:49.806Z,12.96
2023-05-15T06:59:49.789Z,13.03
2023-05-15T07:00:49.862Z,13.16
2023-05-15T07:01:49.851Z,13.25
2023-05-15T07:02:49.993Z,13.31
2023-05-15T07:03:49.761Z,13.22
2023-05-15T07:04:49.853Z,13.31
2023-05-15T07:05:49.759Z,13.44
2023-05-15T07:06:49.825Z,13.51
2023-05-15T07:07:49.729Z,13.41
2023-05-15T07:08:49.731Z,13.38
2023-05-15T07:09:49.727Z,13.46
2023-05-15T07:10:49.733Z,13.41
2023-05-15T07:11:49.747Z,13.50
2023-05-15T07:12:49.690Z,13.55
2023-05-15T07:13:50.694Z,13.53
2023-05-15T07:14:49.669Z,13.53
2023-05-15T07:15:49.663Z,13.65
2023-05-15T07:16:49.685Z,13.80
2023-05-15T07:17:49.825Z,13.91
2023-05-15T07:18:49.947Z,13.90
2023-05-15T07:19:49.649Z,13.88
2023-05-15T07:20:49.641Z,13.98
2023-05-15T07:21:49.644Z,14.16
2023-05-15T07:22:56.364Z,14.11
2023-05-15T07:23:50.703Z,13.96
2023-05-15T07:24:49.636Z,14.08
2023-05-15T07:25:49.624Z,14.21
2023-05-15T07:26:58.056Z,14.29
2023-05-15T07:27:50.588Z,14.41
2023-05-15T07:28:49.636Z,14.35
2023-05-15T07:29:49.611Z,14.53
2023-05-15T07:30:49.568Z,14.56
2023-05-15T07:31:49.615Z,14.71
2023-05-15T07:32:49.576Z,14.60
2023-05-15T07:33:49.554Z,14.45
2023-05-15T07:34:49.787Z,14.31
2023-05-15T07:35:49.525Z,14.35
2023-05-15T07:36:49.552Z,14.44
2023-05-15T07:37:49.536Z,14.59
2023-05-15T07:38:49.535Z,14.59
2023-05-15T07:39:49.544Z,14.80
2023-05-15T07:40:49.518Z,14.87
2023-05-15T07:41:49.478Z,15.12
2023-05-15T07:42:49.495Z,15.22
2023-05-15T07:43:49.487Z,15.15
2023-05-15T07:44:49.674Z,15.22
2023-05-15T07:45:49.557Z,15.25
2023-05-15T07:46:49.620Z,15.35
2023-05-15T07:47:49.468Z,15.49
2023-05-15T07:48:49.454Z,15.51
2023-05-15T07:49:49.473Z,15.55
2023-05-15T07:50:49.439Z,15.55
2023-05-15T07:51:49.450Z,15.60
2023-05-15T07:52:49.436Z,15.64
2023-05-15T07:53:49.412Z,15.85
2023-05-15T07:54:49.411Z,15.78
2023-05-15T07:55:49.407Z,15.78
2023-05-15T07:56:49.412Z,15.78
2023-05-15T07:57:53.507Z,15.88
2023-05-15T07:58:49.415Z,15.89
2023-05-15T07:59:49.366Z,15.95
2023-05-15T08:00:49.377Z,16.08
2023-05-15T08:01:49.378Z,16.18
2023-05-15T08:02:49.436Z,16.17
2023-05-15T08:03:49.547Z,16.33
2023-05-15T08:04:49.323Z,16.26
2023-05-15T08:05:49.321Z,16.22
2023-05-15T08:06:49.375Z,16.25
2023-05-15T08:07:49.322Z,16.29
2023-05-15T08:08:49.295Z,16.37
2023-05-15T08:09:49.361Z,16.10
2023-05-15T08:10:49.307Z,16.23
2023-05-15T08:11:49.287Z,16.30
2023-05-15T08:12:49.292Z,16.29
2023-05-15T08:13:49.300Z,16.50
2023-05-15T08:14:49.310Z,16.70
2023-05-15T08:15:49.288Z,16.45
2023-05-15T08:16:49.246Z,16.72
2023-05-15T08:17:49.244Z,16.70
2023-05-15T08:18:49.306Z,16.82
2023-05-15T08:19:49.249Z,16.95
2023-05-15T08:20:49.229Z,17.03
2023-05-15T08:21:49.221Z,17.06
2023-05-15T08:22:49.270Z,17.12
2023-05-15T08:23:49.180Z,17.21
2023-05-15T08:24:49.200Z,17.45
2023-05-15T08:25:49.177Z,17.49
2023-05-15T08:26:49.260Z,17.57
2023-05-15T08:27:49.173Z,17.76
2023-05-15T08:28:49.146Z,17.77
2023-05-15T08:29:49.162Z,17.76
2023-05-15T08:30:49.263Z,17.86
2023-05-15T08:31:49.285Z,17.79
2023-05-15T08:32:49.209Z,17.91
2023-05-15T08:33:49.158Z,17.96
2023-05-15T08:34:49.092Z,18.11
2023-05-15T08:35:49.150Z,18.21
2023-05-15T08:36:49.151Z,18.42
2023-05-15T08:37:49.397Z,18.53
2023-05-15T08:38:49.064Z,18.74
2023-05-15T08:39:49.078Z,18.82
2023-05-15T08:40:49.050Z,18.89
2023-05-15T08:41:49.040Z,19.12
2023-05-15T08:42:49.043Z,19.43
2023-05-15T08:43:49.101Z,19.64
2023-05-15T08:44:49.039Z,19.76
2023-05-15T08:45:49.043Z,20.07
2023-05-15T08:46:49.204Z,20.17
2023-05-15T08:47:49.112Z,20.17
2023-05-15T08:48:49.039Z,20.23
2023-05-15T08:49:49.044Z,20.23
2023-05-15T08:50:49.000Z,19.98
2023-05-15T08:51:48.984Z,20.12
2023-05-15T08:52:48.984Z,20.54
2023-05-15T08:53:48.956Z,20.76
2023-05-15T08:54:48.989Z,20.96
2023-05-15T08:55:48.970Z,21.03
2023-05-15T08:56:48.941Z,21.33
2023-05-15T08:57:48.954Z,21.00
2023-05-15T08:58:48.953Z,20.81
2023-05-15T08:59:48.912Z,20.88
2023-05-15T09:00:48.954Z,21.18
2023-05-15T09:01:48.954Z,21.09
2023-05-15T09:02:48.969Z,21.22
2023-05-15T09:03:48.945Z,21.24
2023-05-15T09:04:48.934Z,21.43
2023-05-15T09:05:48.877Z,21.40
2023-05-15T09:06:48.952Z,21.83
2023-05-15T09:07:48.948Z,22.21
2023-05-15T09:08:48.921Z,22.63
2023-05-15T09:09:48.842Z,22.59
2023-05-15T09:10:48.820Z,21.99
2023-05-15T09:11:48.827Z,21.67
2023-05-15T09:12:48.871Z,21.53
2023-05-15T09:13:48.853Z,21.52
2023-05-15T09:14:48.844Z,22.01
2023-05-15T09:15:48.822Z,22.63
2023-05-15T09:16:48.851Z,22.91
2023-05-15T09:17:48.868Z,22.82
2023-05-15T09:18:48.808Z,22.51
2023-05-15T09:19:48.771Z,22.31
2023-05-15T09:20:48.770Z,22.01
2023-05-15T09:21:48.764Z,21.68
2023-05-15T09:22:48.771Z,21.94
2023-05-15T09:23:48.834Z,22.04
2023-05-15T09:24:48.738Z,21.96
2023-05-15T09:25:48.711Z,21.81
2023-05-15T09:26:48.710Z,21.45
2023-05-15T09:27:48.689Z,21.13
2023-05-15T09:28:48.715Z,21.26
2023-05-15T09:29:48.744Z,21.38
2023-05-15T09:30:48.756Z,21.56
2023-05-15T09:31:48.784Z,21.77
2023-05-15T09:32:48.744Z,21.52
2023-05-15T09:33:48.660Z,21.15
2023-05-15T09:34:48.686Z,20.71
2023-05-15T09:35:48.673Z,20.46
2023-05-15T09:36:48.675Z,20.19
2023-05-15T09:37:48.661Z,19.97
2023-05-15T09:38:48.693Z,19.80
2023-05-15T09:39:48.706Z,19.38
2023-05-15T09:40:48.642Z,18.47
2023-05-15T09:41:48.626Z,17.96
2023-05-15T09:42:48.604Z,17.79
2023-05-15T09:43:48.608Z,17.68
2023-05-15T09:44:48.638Z,17.74
2023-05-15T09:45:48.640Z,17.73
2023-05-15T09:46:48.682Z,17.46
2023-05-15T09:47:48.688Z,17.38
2023-05-15T09:48:48.559Z,17.38
2023-05-15T09:49:48.575Z,17.09
2023-05-15T09:50:48.598Z,16.90
2023-05-15T09:51:48.573Z,16.81
2023-05-15T09:52:48.529Z,16.73
2023-05-15T09:53:48.552Z,16.36
2023-05-15T09:54:50.235Z,16.33
2023-05-15T09:55:48.514Z,16.10
2023-05-15T09:56:48.575Z,16.03
2023-05-15T09:57:48.509Z,15.76
2023-05-15T09:58:48.511Z,15.80
2023-05-15T09:59:48.554Z,15.68
2023-05-15T10:00:49.614Z,15.67
2023-05-15T10:01:48.538Z,15.73
2023-05-15T10:02:48.535Z,15.66
2023-05-15T10:03:48.501Z,15.71
2023-05-15T10:04:48.480Z,15.81
2023-05-15T10:05:48.614Z,15.81
2023-05-15T10:06:48.455Z,15.85
2023-05-15T10:07:48.476Z,15.80
2023-05-15T10:08:48.488Z,15.66
2023-05-15T10:09:48.419Z,15.60
2023-05-15T10:10:48.435Z,15.55
2023-05-15T10:11:48.481Z,15.51
2023-05-15T10:12:48.450Z,15.62
2023-05-15T10:13:48.455Z,15.60
2023-05-15T10:14:48.378Z,15.76
2023-05-15T10:15:48.401Z,15.78
2023-05-15T10:16:48.361Z,15.86
2023-05-15T10:17:48.647Z,16.03
2023-05-15T10:18:48.426Z,16.13
2023-05-15T10:19:57.808Z,16.06
2023-05-15T10:20:49.392Z,16.11
2023-05-15T10:21:48.377Z,16.07
2023-05-15T10:22:48.353Z,16.11
2023-05-15T10:23:48.352Z,16.27
2023-05-15T10:24:48.364Z,16.40
2023-05-15T10:25:48.364Z,16.40
2023-05-15T10:26:48.371Z,16.57
2023-05-15T10:27:48.307Z,16.62
2023-05-15T10:28:48.311Z,16.75
2023-05-15T10:29:48.335Z,16.95
2023-05-15T10:30:48.263Z,17.14
2023-05-15T10:31:48.317Z,17.21
2023-05-15T10:32:48.388Z,17.36
2023-05-15T10:33:48.312Z,17.63
2023-05-15T10:34:48.235Z,17.84
2023-05-15T10:35:48.259Z,17.96
2023-05-15T10:36:48.241Z,17.95
2023-05-15T10:37:48.258Z,18.14
2023-05-15T10:38:48.221Z,17.96
2023-05-15T10:39:48.282Z,18.13
2023-05-15T10:40:48.539Z,18.17
2023-05-15T10:41:48.213Z,18.02
2023-05-15T10:42:48.214Z,17.87
2023-05-15T10:43:48.207Z,17.87
2023-05-15T10:44:48.182Z,18.14
2023-05-15T10:45:48.165Z,18.26
2023-05-15T10:46:48.300Z,18.19
2023-05-15T10:47:48.243Z,17.94
2023-05-15T10:48:48.204Z,18.11
2023-05-15T10:49:48.190Z,18.36
2023-05-15T10:50:48.192Z,18.56
2023-05-15T10:51:48.126Z,18.72
2023-05-15T10:52:48.136Z,18.75
2023-05-15T10:53:48.160Z,18.69
2023-05-15T10:54:48.091Z,18.78
2023-05-15T10:55:48.113Z,18.76
2023-05-15T10:56:49.928Z,19.17
2023-05-15T10:57:48.154Z,19.57
2023-05-15T10:58:48.193Z,20.27
2023-05-15T10:59:48.074Z,20.15
2023-05-15T11:00:48.152Z,20.00
2023-05-15T11:01:48.036Z,19.72
2023-05-15T11:02:48.039Z,19.12
2023-05-15T11:03:49.622Z,18.82
2023-05-15T11:04:48.220Z,18.71
2023-05-15T11:05:48.009Z,18.86
2023-05-15T11:06:48.043Z,18.94
2023-05-15T11:07:47.965Z,19.27
2023-05-15T11:08:48.050Z,19.10
2023-05-15T11:09:48.088Z,18.96
2023-05-15T11:10:48.008Z,18.82
2023-05-15T11:11:47.959Z,18.41
2023-05-15T11:12:47.984Z,18.41
2023-05-15T11:13:47.943Z,18.35
2023-05-15T11:14:47.969Z,18.66
2023-05-15T11:15:47.992Z,18.82
2023-05-15T11:16:47.960Z,18.84
2023-05-15T11:17:47.946Z,19.07
2023-05-15T11:18:47.958Z,19.32
2023-05-15T11:19:48.060Z,19.72
2023-05-15T11:20:48.954Z,19.82
2023-05-15T11:21:47.957Z,19.72
2023-05-15T11:22:47.927Z,19.75
2023-05-15T11:23:47.929Z,19.64
2023-05-15T11:24:47.925Z,19.39
2023-05-15T11:25:47.903Z,19.60
2023-05-15T11:26:47.940Z,19.76
2023-05-15T11:27:47.876Z,19.87
2023-05-15T11:28:47.923Z,20.94
2023-05-15T11:29:48.823Z,21.24
2023-05-15T11:30:47.917Z,21.74
2023-05-15T11:31:47.866Z,21.64
2023-05-15T11:32:47.895Z,21.19
2023-05-15T11:33:47.825Z,20.73
2023-05-15T11:34:47.863Z,20.88
2023-05-15T11:35:48.004Z,20.96
2023-05-15T11:36:47.825Z,21.18
2023-05-15T11:37:47.789Z,21.09
2023-05-15T11:38:47.850Z,21.27
2023-05-15T11:39:47.801Z,21.36
2023-05-15T11:40:47.743Z,21.03
2023-05-15T11:41:48.268Z,21.12
2023-05-15T11:42:47.740Z,21.77
2023-05-15T11:43:47.810Z,22.54
2023-05-15T11:44:47.796Z,22.76
2023-05-15T11:45:47.794Z,22.63
2023-05-15T11:46:47.754Z,22.56
2023-05-15T11:47:47.909Z,22.96
2023-05-15T11:48:47.859Z,22.75
2023-05-15T11:49:47.704Z,22.23
2023-05-15T11:50:47.744Z,22.79
2023-05-15T11:51:47.666Z,23.29
2023-05-15T11:52:47.710Z,24.04
2023-05-15T11:53:47.709Z,23.97
2023-05-15T11:54:47.669Z,23.53
2023-05-15T11:55:47.661Z,23.41
2023-05-15T11:56:47.619Z,22.61
2023-05-15T11:57:47.626Z,22.23
2023-05-15T11:58:47.668Z,21.85
2023-05-15T11:59:47.690Z,21.28
2023-05-15T12:00:47.627Z,21.24
2023-05-15T12:01:47.770Z,20.83
2023-05-15T12:02:47.646Z,20.64
2023-05-15T12:03:47.772Z,20.69
2023-05-15T12:04:47.682Z,20.81
2023-05-15T12:05:57.577Z,20.61
2023-05-15T12:06:48.544Z,20.60
2023-05-15T12:07:47.616Z,20.26
2023-05-15T12:08:49.583Z,20.40
2023-05-15T12:09:47.552Z,20.25
2023-05-15T12:10:47.590Z,20.97
2023-05-15T12:11:47.604Z,21.24
2023-05-15T12:12:47.646Z,21.00
2023-05-15T12:13:47.642Z,20.72
2023-05-15T12:14:47.549Z,21.43
2023-05-15T12:15:47.558Z,21.89
2023-05-15T12:16:47.526Z,22.29
2023-05-15T12:17:47.540Z,22.76
2023-05-15T12:18:47.649Z,22.78
2023-05-15T12:19:47.532Z,22.15
2023-05-15T12:20:48.574Z,22.57
2023-05-15T12:21:47.553Z,23.09
2023-05-15T12:22:48.478Z,23.71
2023-05-15T12:23:53.373Z,24.19
2023-05-15T12:24:48.521Z,24.82
2023-05-15T12:25:47.438Z,24.84
2023-05-15T12:26:47.547Z,25.63
2023-05-15T12:27:48.435Z,25.78
2023-05-15T12:28:47.405Z,24.71
2023-05-15T12:29:47.498Z,23.18
2023-05-15T12:30:47.482Z,22.57
2023-05-15T12:31:47.491Z,22.17
2023-05-15T12:32:47.467Z,22.02
2023-05-15T12:33:47.437Z,21.38
2023-05-15T12:34:47.372Z,20.76
2023-05-15T12:35:47.384Z,20.81
2023-05-15T12:36:47.389Z,21.00
2023-05-15T12:37:47.404Z,20.31
2023-05-15T12:38:47.382Z,20.01
2023-05-15T12:39:47.405Z,20.20
2023-05-15T12:40:47.385Z,20.10
2023-05-15T12:41:49.094Z,20.58
2023-05-15T12:42:47.369Z,20.93
2023-05-15T12:43:47.339Z,21.05
2023-05-15T12:44:47.372Z,21.43
2023-05-15T12:45:47.361Z,22.24
2023-05-15T12:46:47.300Z,21.63
2023-05-15T12:47:47.935Z,21.91
2023-05-15T12:48:48.433Z,21.90
2023-05-15T12:49:47.279Z,21.83
2023-05-15T12:50:47.254Z,22.57
2023-05-15T12:51:47.268Z,22.67
2023-05-15T12:52:47.267Z,22.72
2023-05-15T12:53:47.354Z,23.06
2023-05-15T12:54:47.234Z,23.03
2023-05-15T12:55:47.211Z,22.70
2023-05-15T12:56:47.274Z,21.85
2023-05-15T12:57:48.304Z,21.46
2023-05-15T12:58:47.255Z,21.28
2023-05-15T12:59:47.183Z,20.78
2023-05-15T13:00:47.203Z,20.42
2023-05-15T13:01:47.217Z,20.19
2023-05-15T13:02:47.287Z,20.07
2023-05-15T13:03:47.266Z,20.02